sensor_id;sensor_type;location;lat;lon;timestamp;temperature;humidity
37410;DHT22;23275;48.914;12.566;2022-09-13T00:00:28;12.10;99.90
37410;DHT22;23275;48.914;12.566;2022-09-13T00:02:54;12.00;99.90
37410;DHT22;23275;48.914;12.566;2022-09-13T00:05:19;11.90;99.90
37410;DHT22;23275;48.914;12.566;2022-09-13T00:07:45;11.80;99.90
37410;DHT22;23275;48.914;12.566;2022-09-13T00:10:10;11.80;99.90
37410;DHT22;23275;48.914;12.566;2022-09-13T00:12:36;11.70;99.90
37410;DHT22;23275;48.914;12.566;2022-09-13T00:15:02;11.70;99.90
37410;DHT22;23275;48.914;12.566;2022-09-13T00:17:28;11.70;99.90
37410;DHT22;23275;48.914;12.566;2022-09-13T00:19:53;11.60;99.90
37410;DHT22;23275;48.914;12.566;2022-09-13T00:22:19;11.60;99.90
37410;DHT22;23275;48.914;12.566;2022-09-13T00:24:44;11.60;99.90
37410;DHT22;23275;48.914;12.566;2022-09-13T00:27:10;11.60;99.90
37410;DHT22;23275;48.914;12.566;2022-09-13T00:29:37;11.50;99.90
37410;DHT22;23275;48.914;12.566;2022-09-13T00:32:03;11.50;99.90
37410;DHT22;23275;48.914;12.566;2022-09-13T00:34:28;11.60;99.90
37410;DHT22;23275;48.914;12.566;2022-09-13T00:36:54;11.60;99.90
37410;DHT22;23275;48.914;12.566;2022-09-13T00:39:19;11.60;99.90
37410;DHT22;23275;48.914;12.566;2022-09-13T00:41:45;11.60;99.90
37410;DHT22;23275;48.914;12.566;2022-09-13T00:47:12;11.60;99.90
37410;DHT22;23275;48.914;12.566;2022-09-13T00:49:40;11.60;99.90
37410;DHT22;23275;48.914;12.566;2022-09-13T00:52:10;11.50;99.90
37410;DHT22;23275;48.914;12.566;2022-09-13T00:54:45;11.60;99.90
37410;DHT22;23275;48.914;12.566;2022-09-13T00:57:13;11.60;99.90
37410;DHT22;23275;48.914;12.566;2022-09-13T00:59:45;11.60;99.90
37410;DHT22;23275;48.914;12.566;2022-09-13T01:02:12;11.60;99.90
37410;DHT22;23275;48.914;12.566;2022-09-13T01:04:39;11.60;99.90
37410;DHT22;23275;48.914;12.566;2022-09-13T01:07:07;11.60;99.90
37410;DHT22;23275;48.914;12.566;2022-09-13T01:09:36;11.70;99.90
37410;DHT22;23275;48.914;12.566;2022-09-13T01:12:10;11.70;99.90
37410;DHT22;23275;48.914;12.566;2022-09-13T01:14:39;11.70;99.90
37410;DHT22;23275;48.914;12.566;2022-09-13T01:17:04;11.70;99.90
37410;DHT22;23275;48.914;12.566;2022-09-13T01:19:30;11.70;99.90
37410;DHT22;23275;48.914;12.566;2022-09-13T01:33:02;11.60;99.90
37410;DHT22;23275;48.914;12.566;2022-09-13T01:38:44;11.50;99.90
37410;DHT22;23275;48.914;12.566;2022-09-13T01:47:40;11.60;99.90
37410;DHT22;23275;48.914;12.566;2022-09-13T01:50:20;11.60;99.90
37410;DHT22;23275;48.914;12.566;2022-09-13T01:52:56;11.60;99.90
37410;DHT22;23275;48.914;12.566;2022-09-13T01:58:01;11.50;99.90
37410;DHT22;23275;48.914;12.566;2022-09-13T02:00:27;11.60;99.90
37410;DHT22;23275;48.914;12.566;2022-09-13T02:03:18;11.50;99.90
37410;DHT22;23275;48.914;12.566;2022-09-13T02:05:52;11.50;99.90
37410;DHT22;23275;48.914;12.566;2022-09-13T02:08:35;11.50;99.90
37410;DHT22;23275;48.914;12.566;2022-09-13T02:11:13;11.40;99.90
37410;DHT22;23275;48.914;12.566;2022-09-13T02:14:06;11.40;99.90
37410;DHT22;23275;48.914;12.566;2022-09-13T02:17:03;11.40;99.90
37410;DHT22;23275;48.914;12.566;2022-09-13T02:19:32;11.30;99.90
37410;DHT22;23275;48.914;12.566;2022-09-13T02:22:01;11.30;99.90
37410;DHT22;23275;48.914;12.566;2022-09-13T02:24:37;11.30;99.90
37410;DHT22;23275;48.914;12.566;2022-09-13T02:27:09;11.20;99.90
37410;DHT22;23275;48.914;12.566;2022-09-13T02:29:39;11.20;99.90
37410;DHT22;23275;48.914;12.566;2022-09-13T02:32:15;11.20;99.90
37410;DHT22;23275;48.914;12.566;2022-09-13T02:34:45;11.10;99.90
37410;DHT22;23275;48.914;12.566;2022-09-13T02:37:13;11.00;99.90
37410;DHT22;23275;48.914;12.566;2022-09-13T02:39:54;11.00;99.90
37410;DHT22;23275;48.914;12.566;2022-09-13T02:42:25;11.00;99.90
37410;DHT22;23275;48.914;12.566;2022-09-13T02:44:56;11.00;99.90
37410;DHT22;23275;48.914;12.566;2022-09-13T02:55:58;11.10;99.90
37410;DHT22;23275;48.914;12.566;2022-09-13T03:01:02;11.20;99.90
37410;DHT22;23275;48.914;12.566;2022-09-13T03:03:27;11.10;99.90
37410;DHT22;23275;48.914;12.566;2022-09-13T03:05:53;11.10;99.90
37410;DHT22;23275;48.914;12.566;2022-09-13T03:08:19;11.00;99.90
37410;DHT22;23275;48.914;12.566;2022-09-13T03:11:09;10.90;99.90
37410;DHT22;23275;48.914;12.566;2022-09-13T03:17:01;10.60;99.90
37410;DHT22;23275;48.914;12.566;2022-09-13T03:30:49;10.50;99.90
37410;DHT22;23275;48.914;12.566;2022-09-13T03:33:27;10.40;99.90
37410;DHT22;23275;48.914;12.566;2022-09-13T03:36:05;10.40;99.90
37410;DHT22;23275;48.914;12.566;2022-09-13T03:38:43;10.40;99.90
37410;DHT22;23275;48.914;12.566;2022-09-13T03:41:16;10.40;99.90
37410;DHT22;23275;48.914;12.566;2022-09-13T03:43:50;10.30;99.90
37410;DHT22;23275;48.914;12.566;2022-09-13T03:46:22;10.30;99.90
37410;DHT22;23275;48.914;12.566;2022-09-13T03:48:49;10.20;99.90
37410;DHT22;23275;48.914;12.566;2022-09-13T03:51:16;10.20;99.90
37410;DHT22;23275;48.914;12.566;2022-09-13T03:53:46;10.20;99.90
37410;DHT22;23275;48.914;12.566;2022-09-13T03:56:13;10.00;99.90
37410;DHT22;23275;48.914;12.566;2022-09-13T03:58:38;10.10;99.90
37410;DHT22;23275;48.914;12.566;2022-09-13T04:01:04;10.00;99.90
37410;DHT22;23275;48.914;12.566;2022-09-13T04:03:29;10.00;99.90
37410;DHT22;23275;48.914;12.566;2022-09-13T04:05:55;10.00;99.90
37410;DHT22;23275;48.914;12.566;2022-09-13T04:08:20;10.00;99.90
37410;DHT22;23275;48.914;12.566;2022-09-13T04:10:49;9.90;99.90
37410;DHT22;23275;48.914;12.566;2022-09-13T04:13:15;10.00;99.90
37410;DHT22;23275;48.914;12.566;2022-09-13T04:15:41;10.00;99.90
37410;DHT22;23275;48.914;12.566;2022-09-13T04:18:06;10.00;99.90
37410;DHT22;23275;48.914;12.566;2022-09-13T04:20:33;10.10;99.90
37410;DHT22;23275;48.914;12.566;2022-09-13T04:23:00;10.10;99.90
37410;DHT22;23275;48.914;12.566;2022-09-13T04:25:26;10.20;99.90
37410;DHT22;23275;48.914;12.566;2022-09-13T04:27:55;10.20;99.90
37410;DHT22;23275;48.914;12.566;2022-09-13T04:30:22;10.30;99.90
37410;DHT22;23275;48.914;12.566;2022-09-13T04:32:48;10.30;99.90
37410;DHT22;23275;48.914;12.566;2022-09-13T04:35:14;10.30;99.90
37410;DHT22;23275;48.914;12.566;2022-09-13T04:37:41;10.30;99.90
37410;DHT22;23275;48.914;12.566;2022-09-13T04:40:08;10.30;99.90
37410;DHT22;23275;48.914;12.566;2022-09-13T04:42:34;10.30;99.90
37410;DHT22;23275;48.914;12.566;2022-09-13T04:45:00;10.30;99.90
37410;DHT22;23275;48.914;12.566;2022-09-13T04:47:25;10.20;99.90
37410;DHT22;23275;48.914;12.566;2022-09-13T04:49:51;10.30;99.90
37410;DHT22;23275;48.914;12.566;2022-09-13T04:52:16;10.30;99.90
37410;DHT22;23275;48.914;12.566;2022-09-13T04:54:42;10.30;99.90
37410;DHT22;23275;48.914;12.566;2022-09-13T04:57:08;10.30;99.90
37410;DHT22;23275;48.914;12.566;2022-09-13T04:59:33;10.30;99.90
37410;DHT22;23275;48.914;12.566;2022-09-13T05:01:59;10.30;99.90
37410;DHT22;23275;48.914;12.566;2022-09-13T05:04:25;10.30;99.90
37410;DHT22;23275;48.914;12.566;2022-09-13T05:06:50;10.30;99.90
37410;DHT22;23275;48.914;12.566;2022-09-13T05:09:16;10.30;99.90
37410;DHT22;23275;48.914;12.566;2022-09-13T05:11:42;10.40;99.90
37410;DHT22;23275;48.914;12.566;2022-09-13T05:14:10;10.50;99.90
37410;DHT22;23275;48.914;12.566;2022-09-13T05:16:36;10.70;99.90
37410;DHT22;23275;48.914;12.566;2022-09-13T05:19:02;10.80;99.90
37410;DHT22;23275;48.914;12.566;2022-09-13T05:21:29;11.00;99.90
37410;DHT22;23275;48.914;12.566;2022-09-13T05:23:56;11.10;99.90
37410;DHT22;23275;48.914;12.566;2022-09-13T05:26:23;11.20;99.90
37410;DHT22;23275;48.914;12.566;2022-09-13T05:28:49;11.30;99.90
37410;DHT22;23275;48.914;12.566;2022-09-13T05:31:24;11.40;99.90
37410;DHT22;23275;48.914;12.566;2022-09-13T05:33:58;11.50;99.90
37410;DHT22;23275;48.914;12.566;2022-09-13T05:36:24;11.70;99.90
37410;DHT22;23275;48.914;12.566;2022-09-13T05:38:54;11.80;99.90
37410;DHT22;23275;48.914;12.566;2022-09-13T05:41:20;12.00;99.90
37410;DHT22;23275;48.914;12.566;2022-09-13T05:43:46;12.20;99.90
37410;DHT22;23275;48.914;12.566;2022-09-13T05:46:16;12.30;99.90
37410;DHT22;23275;48.914;12.566;2022-09-13T05:48:42;12.40;99.90
37410;DHT22;23275;48.914;12.566;2022-09-13T05:51:13;12.40;99.90
37410;DHT22;23275;48.914;12.566;2022-09-13T05:53:42;12.40;99.90
37410;DHT22;23275;48.914;12.566;2022-09-13T05:56:11;12.20;99.90
37410;DHT22;23275;48.914;12.566;2022-09-13T05:58:41;12.10;99.90
37410;DHT22;23275;48.914;12.566;2022-09-13T06:01:08;12.10;99.90
37410;DHT22;23275;48.914;12.566;2022-09-13T06:03:33;12.30;99.90
37410;DHT22;23275;48.914;12.566;2022-09-13T06:05:59;12.40;99.90
37410;DHT22;23275;48.914;12.566;2022-09-13T06:08:26;12.40;99.90
37410;DHT22;23275;48.914;12.566;2022-09-13T06:10:58;12.50;99.90
37410;DHT22;23275;48.914;12.566;2022-09-13T06:13:24;12.50;99.90
37410;DHT22;23275;48.914;12.566;2022-09-13T06:15:50;12.50;99.90
37410;DHT22;23275;48.914;12.566;2022-09-13T06:18:15;12.60;99.90
37410;DHT22;23275;48.914;12.566;2022-09-13T06:20:42;12.70;99.90
37410;DHT22;23275;48.914;12.566;2022-09-13T06:23:07;12.80;99.90
37410;DHT22;23275;48.914;12.566;2022-09-13T06:25:33;12.90;99.90
37410;DHT22;23275;48.914;12.566;2022-09-13T06:27:59;13.10;99.90
37410;DHT22;23275;48.914;12.566;2022-09-13T06:30:24;13.10;99.90
37410;DHT22;23275;48.914;12.566;2022-09-13T06:32:50;13.10;99.90
37410;DHT22;23275;48.914;12.566;2022-09-13T06:35:15;13.10;99.90
37410;DHT22;23275;48.914;12.566;2022-09-13T06:37:41;13.00;99.90
37410;DHT22;23275;48.914;12.566;2022-09-13T06:40:07;13.10;99.90
37410;DHT22;23275;48.914;12.566;2022-09-13T06:42:34;13.20;99.90
37410;DHT22;23275;48.914;12.566;2022-09-13T06:45:00;13.30;99.90
37410;DHT22;23275;48.914;12.566;2022-09-13T06:47:25;13.50;99.90
37410;DHT22;23275;48.914;12.566;2022-09-13T06:49:51;13.60;99.90
37410;DHT22;23275;48.914;12.566;2022-09-13T06:52:17;13.80;99.90
37410;DHT22;23275;48.914;12.566;2022-09-13T06:54:43;14.00;99.90
37410;DHT22;23275;48.914;12.566;2022-09-13T06:57:08;14.20;99.90
37410;DHT22;23275;48.914;12.566;2022-09-13T06:59:34;14.40;99.90
37410;DHT22;23275;48.914;12.566;2022-09-13T07:02:00;14.50;99.90
37410;DHT22;23275;48.914;12.566;2022-09-13T07:04:25;14.70;99.90
37410;DHT22;23275;48.914;12.566;2022-09-13T07:06:56;14.80;99.90
37410;DHT22;23275;48.914;12.566;2022-09-13T07:09:22;14.90;99.90
37410;DHT22;23275;48.914;12.566;2022-09-13T07:11:49;15.00;99.90
37410;DHT22;23275;48.914;12.566;2022-09-13T07:14:18;15.00;99.90
37410;DHT22;23275;48.914;12.566;2022-09-13T07:16:44;15.20;99.90
37410;DHT22;23275;48.914;12.566;2022-09-13T07:19:15;15.30;99.90
37410;DHT22;23275;48.914;12.566;2022-09-13T07:21:41;15.40;99.90
37410;DHT22;23275;48.914;12.566;2022-09-13T07:24:07;15.50;99.90
37410;DHT22;23275;48.914;12.566;2022-09-13T07:26:33;15.70;99.90
37410;DHT22;23275;48.914;12.566;2022-09-13T07:29:01;15.80;99.90
37410;DHT22;23275;48.914;12.566;2022-09-13T07:31:30;16.10;99.90
37410;DHT22;23275;48.914;12.566;2022-09-13T07:33:58;16.30;99.90
37410;DHT22;23275;48.914;12.566;2022-09-13T07:36:25;16.50;99.90
37410;DHT22;23275;48.914;12.566;2022-09-13T07:38:52;16.70;99.90
37410;DHT22;23275;48.914;12.566;2022-09-13T07:41:19;17.00;99.90
37410;DHT22;23275;48.914;12.566;2022-09-13T07:43:45;17.10;99.90
37410;DHT22;23275;48.914;12.566;2022-09-13T07:46:14;17.20;99.90
37410;DHT22;23275;48.914;12.566;2022-09-13T07:48:41;17.10;99.90
37410;DHT22;23275;48.914;12.566;2022-09-13T07:51:16;17.10;99.90
37410;DHT22;23275;48.914;12.566;2022-09-13T07:53:43;17.00;99.90
37410;DHT22;23275;48.914;12.566;2022-09-13T07:56:11;17.00;99.90
37410;DHT22;23275;48.914;12.566;2022-09-13T07:58:38;17.10;99.90
37410;DHT22;23275;48.914;12.566;2022-09-13T08:03:35;17.40;99.90
37410;DHT22;23275;48.914;12.566;2022-09-13T08:06:02;17.70;99.90
37410;DHT22;23275;48.914;12.566;2022-09-13T08:08:29;17.90;99.90
37410;DHT22;23275;48.914;12.566;2022-09-13T08:10:55;18.20;99.90
37410;DHT22;23275;48.914;12.566;2022-09-13T08:13:21;18.60;99.90
37410;DHT22;23275;48.914;12.566;2022-09-13T08:15:46;19.00;99.90
37410;DHT22;23275;48.914;12.566;2022-09-13T08:18:12;19.10;99.90
37410;DHT22;23275;48.914;12.566;2022-09-13T08:20:38;19.30;99.90
37410;DHT22;23275;48.914;12.566;2022-09-13T08:23:05;19.40;99.90
37410;DHT22;23275;48.914;12.566;2022-09-13T08:25:35;19.60;99.90
37410;DHT22;23275;48.914;12.566;2022-09-13T08:28:04;19.90;99.90
37410;DHT22;23275;48.914;12.566;2022-09-13T08:30:30;19.70;99.90
37410;DHT22;23275;48.914;12.566;2022-09-13T08:32:58;19.40;99.90
37410;DHT22;23275;48.914;12.566;2022-09-13T08:35:25;19.00;99.90
37410;DHT22;23275;48.914;12.566;2022-09-13T08:37:51;18.70;99.90
37410;DHT22;23275;48.914;12.566;2022-09-13T08:40:16;18.60;99.90
37410;DHT22;23275;48.914;12.566;2022-09-13T08:45:22;18.50;99.90
37410;DHT22;23275;48.914;12.566;2022-09-13T08:47:52;18.90;99.90
37410;DHT22;23275;48.914;12.566;2022-09-13T08:50:24;19.40;99.90
37410;DHT22;23275;48.914;12.566;2022-09-13T08:53:02;19.90;99.90
37410;DHT22;23275;48.914;12.566;2022-09-13T08:55:42;20.30;99.90
37410;DHT22;23275;48.914;12.566;2022-09-13T08:58:17;20.80;99.90
37410;DHT22;23275;48.914;12.566;2022-09-13T09:00:49;21.30;99.90
37410;DHT22;23275;48.914;12.566;2022-09-13T09:06:23;22.80;99.90
37410;DHT22;23275;48.914;12.566;2022-09-13T09:08:53;24.20;99.90
37410;DHT22;23275;48.914;12.566;2022-09-13T09:14:06;26.60;99.90
37410;DHT22;23275;48.914;12.566;2022-09-13T09:16:42;27.10;99.90
37410;DHT22;23275;48.914;12.566;2022-09-13T09:19:39;27.50;99.90
37410;DHT22;23275;48.914;12.566;2022-09-13T09:22:18;28.20;99.90
37410;DHT22;23275;48.914;12.566;2022-09-13T09:24:52;28.20;99.90
37410;DHT22;23275;48.914;12.566;2022-09-13T09:27:19;29.10;99.90
37410;DHT22;23275;48.914;12.566;2022-09-13T09:29:48;28.40;99.90
37410;DHT22;23275;48.914;12.566;2022-09-13T09:38:19;28.80;99.90
37410;DHT22;23275;48.914;12.566;2022-09-13T09:40:48;28.10;99.90
37410;DHT22;23275;48.914;12.566;2022-09-13T09:43:22;27.90;99.90
37410;DHT22;23275;48.914;12.566;2022-09-13T09:45:51;27.50;99.90
37410;DHT22;23275;48.914;12.566;2022-09-13T09:48:23;26.70;99.90
37410;DHT22;23275;48.914;12.566;2022-09-13T09:50:53;26.30;99.90
37410;DHT22;23275;48.914;12.566;2022-09-13T09:53:32;25.70;99.90
37410;DHT22;23275;48.914;12.566;2022-09-13T09:56:05;25.60;99.90
37410;DHT22;23275;48.914;12.566;2022-09-13T09:58:42;25.70;99.90
37410;DHT22;23275;48.914;12.566;2022-09-13T10:01:26;26.00;99.90
37410;DHT22;23275;48.914;12.566;2022-09-13T10:04:02;26.40;99.90
37410;DHT22;23275;48.914;12.566;2022-09-13T10:06:30;27.70;99.90
37410;DHT22;23275;48.914;12.566;2022-09-13T10:09:19;29.10;99.90
37410;DHT22;23275;48.914;12.566;2022-09-13T10:11:55;29.70;99.40
37410;DHT22;23275;48.914;12.566;2022-09-13T10:17:20;29.60;99.90
37410;DHT22;23275;48.914;12.566;2022-09-13T10:22:17;30.80;97.40
37410;DHT22;23275;48.914;12.566;2022-09-13T10:24:43;29.60;99.40
37410;DHT22;23275;48.914;12.566;2022-09-13T10:29:52;27.90;99.10
37410;DHT22;23275;48.914;12.566;2022-09-13T10:32:20;27.70;99.10
37410;DHT22;23275;48.914;12.566;2022-09-13T10:34:47;28.60;99.90
37410;DHT22;23275;48.914;12.566;2022-09-13T10:37:16;28.60;97.70
37410;DHT22;23275;48.914;12.566;2022-09-13T10:40:12;27.00;99.20
37410;DHT22;23275;48.914;12.566;2022-09-13T10:42:53;25.20;99.90
37410;DHT22;23275;48.914;12.566;2022-09-13T10:45:23;24.10;99.90
37410;DHT22;23275;48.914;12.566;2022-09-13T10:47:52;23.60;99.90
37410;DHT22;23275;48.914;12.566;2022-09-13T10:52:59;22.20;99.90
37410;DHT22;23275;48.914;12.566;2022-09-13T10:55:28;21.90;99.90
37410;DHT22;23275;48.914;12.566;2022-09-13T11:09:26;21.50;99.90
37410;DHT22;23275;48.914;12.566;2022-09-13T11:12:14;21.30;99.90
37410;DHT22;23275;48.914;12.566;2022-09-13T11:17:38;20.90;99.90
37410;DHT22;23275;48.914;12.566;2022-09-13T11:26:44;20.90;99.90
37410;DHT22;23275;48.914;12.566;2022-09-13T11:29:54;21.00;99.90
37410;DHT22;23275;48.914;12.566;2022-09-13T11:54:57;20.80;99.90
37410;DHT22;23275;48.914;12.566;2022-09-13T11:57:40;20.80;99.90
37410;DHT22;23275;48.914;12.566;2022-09-13T12:00:47;20.70;99.90
37410;DHT22;23275;48.914;12.566;2022-09-13T12:03:26;20.60;99.90
37410;DHT22;23275;48.914;12.566;2022-09-13T12:06:04;20.60;99.90
37410;DHT22;23275;48.914;12.566;2022-09-13T12:08:39;20.60;99.90
37410;DHT22;23275;48.914;12.566;2022-09-13T12:11:12;20.50;99.90
37410;DHT22;23275;48.914;12.566;2022-09-13T12:13:47;20.40;99.90
37410;DHT22;23275;48.914;12.566;2022-09-13T12:16:33;20.30;99.90
37410;DHT22;23275;48.914;12.566;2022-09-13T12:19:05;20.30;99.90
37410;DHT22;23275;48.914;12.566;2022-09-13T12:21:36;20.20;99.90
37410;DHT22;23275;48.914;12.566;2022-09-13T12:24:07;20.20;99.90
37410;DHT22;23275;48.914;12.566;2022-09-13T12:26:42;20.20;99.90
37410;DHT22;23275;48.914;12.566;2022-09-13T12:29:18;20.20;99.90
37410;DHT22;23275;48.914;12.566;2022-09-13T12:31:44;20.20;99.90
37410;DHT22;23275;48.914;12.566;2022-09-13T12:34:24;20.30;99.90
37410;DHT22;23275;48.914;12.566;2022-09-13T12:40:05;20.50;99.90
37410;DHT22;23275;48.914;12.566;2022-09-13T12:43:01;20.70;99.90
37410;DHT22;23275;48.914;12.566;2022-09-13T12:53:35;21.00;99.90
37410;DHT22;23275;48.914;12.566;2022-09-13T12:56:38;20.90;99.90
37410;DHT22;23275;48.914;12.566;2022-09-13T12:59:18;21.00;99.90
37410;DHT22;23275;48.914;12.566;2022-09-13T13:01:49;21.10;99.90
37410;DHT22;23275;48.914;12.566;2022-09-13T13:04:28;20.90;99.90
37410;DHT22;23275;48.914;12.566;2022-09-13T13:07:01;20.80;99.90
37410;DHT22;23275;48.914;12.566;2022-09-13T13:09:38;20.80;99.90
37410;DHT22;23275;48.914;12.566;2022-09-13T13:12:10;20.90;99.90
37410;DHT22;23275;48.914;12.566;2022-09-13T13:26:07;20.90;99.90
37410;DHT22;23275;48.914;12.566;2022-09-13T13:36:49;21.00;99.90
37410;DHT22;23275;48.914;12.566;2022-09-13T13:39:38;21.00;99.90
37410;DHT22;23275;48.914;12.566;2022-09-13T13:57:42;20.80;99.90
37410;DHT22;23275;48.914;12.566;2022-09-13T14:00:22;20.80;99.90
37410;DHT22;23275;48.914;12.566;2022-09-13T14:08:06;20.60;99.90
37410;DHT22;23275;48.914;12.566;2022-09-13T14:10:58;20.50;99.90
37410;DHT22;23275;48.914;12.566;2022-09-13T14:14:00;20.40;99.90
37410;DHT22;23275;48.914;12.566;2022-09-13T14:21:41;20.40;99.90
37410;DHT22;23275;48.914;12.566;2022-09-13T14:24:20;20.40;99.90
37410;DHT22;23275;48.914;12.566;2022-09-13T14:26:50;20.40;99.90
37410;DHT22;23275;48.914;12.566;2022-09-13T14:29:19;20.40;99.90
37410;DHT22;23275;48.914;12.566;2022-09-13T14:31:50;20.40;99.90
37410;DHT22;23275;48.914;12.566;2022-09-13T14:34:31;20.40;99.90
37410;DHT22;23275;48.914;12.566;2022-09-13T14:37:02;20.40;99.90
37410;DHT22;23275;48.914;12.566;2022-09-13T14:39:29;20.40;99.90
37410;DHT22;23275;48.914;12.566;2022-09-13T14:44:26;20.50;99.90
37410;DHT22;23275;48.914;12.566;2022-09-13T14:47:06;20.50;99.90
37410;DHT22;23275;48.914;12.566;2022-09-13T14:49:35;20.50;99.90
37410;DHT22;23275;48.914;12.566;2022-09-13T14:52:04;20.50;99.90
37410;DHT22;23275;48.914;12.566;2022-09-13T14:57:29;20.50;99.90
37410;DHT22;23275;48.914;12.566;2022-09-13T15:02:38;20.40;99.90
37410;DHT22;23275;48.914;12.566;2022-09-13T15:05:11;20.40;99.90
37410;DHT22;23275;48.914;12.566;2022-09-13T15:07:38;20.30;99.90
37410;DHT22;23275;48.914;12.566;2022-09-13T15:10:05;20.30;99.90
37410;DHT22;23275;48.914;12.566;2022-09-13T15:12:31;20.20;99.90
37410;DHT22;23275;48.914;12.566;2022-09-13T15:15:39;20.20;99.90
37410;DHT22;23275;48.914;12.566;2022-09-13T15:17:53;20.20;99.90
37410;DHT22;23275;48.914;12.566;2022-09-13T15:20:19;20.10;99.90
37410;DHT22;23275;48.914;12.566;2022-09-13T15:22:45;20.20;99.90
37410;DHT22;23275;48.914;12.566;2022-09-13T15:25:18;20.30;99.90
37410;DHT22;23275;48.914;12.566;2022-09-13T15:27:45;20.30;99.90
37410;DHT22;23275;48.914;12.566;2022-09-13T15:30:22;20.30;99.90
37410;DHT22;23275;48.914;12.566;2022-09-13T15:32:48;20.20;99.90
37410;DHT22;23275;48.914;12.566;2022-09-13T15:35:25;20.20;99.90
37410;DHT22;23275;48.914;12.566;2022-09-13T15:38:06;20.10;99.90
37410;DHT22;23275;48.914;12.566;2022-09-13T15:40:42;20.00;99.90
37410;DHT22;23275;48.914;12.566;2022-09-13T15:43:08;19.90;99.90
37410;DHT22;23275;48.914;12.566;2022-09-13T15:45:34;19.90;99.90
37410;DHT22;23275;48.914;12.566;2022-09-13T15:47:59;19.80;99.90
37410;DHT22;23275;48.914;12.566;2022-09-13T15:50:25;19.80;99.90
37410;DHT22;23275;48.914;12.566;2022-09-13T15:52:53;19.80;99.90
37410;DHT22;23275;48.914;12.566;2022-09-13T15:55:19;19.70;99.90
37410;DHT22;23275;48.914;12.566;2022-09-13T15:57:45;19.70;99.90
37410;DHT22;23275;48.914;12.566;2022-09-13T16:00:20;19.60;99.90
37410;DHT22;23275;48.914;12.566;2022-09-13T16:02:46;19.50;99.90
37410;DHT22;23275;48.914;12.566;2022-09-13T16:05:12;19.50;99.90
37410;DHT22;23275;48.914;12.566;2022-09-13T16:07:38;19.60;99.90
37410;DHT22;23275;48.914;12.566;2022-09-13T16:10:06;19.60;99.90
37410;DHT22;23275;48.914;12.566;2022-09-13T16:12:34;19.50;99.90
37410;DHT22;23275;48.914;12.566;2022-09-13T16:15:00;19.40;99.90
37410;DHT22;23275;48.914;12.566;2022-09-13T16:17:26;19.40;99.90
37410;DHT22;23275;48.914;12.566;2022-09-13T16:19:52;19.40;99.90
37410;DHT22;23275;48.914;12.566;2022-09-13T16:22:17;19.40;99.90
37410;DHT22;23275;48.914;12.566;2022-09-13T16:24:43;19.40;99.90
37410;DHT22;23275;48.914;12.566;2022-09-13T16:27:09;19.30;99.90
37410;DHT22;23275;48.914;12.566;2022-09-13T16:29:38;19.20;99.90
37410;DHT22;23275;48.914;12.566;2022-09-13T16:32:04;19.20;99.90
37410;DHT22;23275;48.914;12.566;2022-09-13T16:34:30;19.20;99.90
37410;DHT22;23275;48.914;12.566;2022-09-13T16:36:55;19.20;99.90
37410;DHT22;23275;48.914;12.566;2022-09-13T16:39:20;19.20;99.90
37410;DHT22;23275;48.914;12.566;2022-09-13T16:41:46;19.20;99.90
37410;DHT22;23275;48.914;12.566;2022-09-13T16:44:11;19.10;99.90
37410;DHT22;23275;48.914;12.566;2022-09-13T16:46:38;19.10;99.90
37410;DHT22;23275;48.914;12.566;2022-09-13T16:49:04;19.10;99.90
37410;DHT22;23275;48.914;12.566;2022-09-13T16:51:30;19.00;99.90
37410;DHT22;23275;48.914;12.566;2022-09-13T16:53:56;19.00;99.90
37410;DHT22;23275;48.914;12.566;2022-09-13T16:56:22;18.90;99.90
37410;DHT22;23275;48.914;12.566;2022-09-13T16:58:49;18.90;99.90
37410;DHT22;23275;48.914;12.566;2022-09-13T17:01:16;18.90;99.90
37410;DHT22;23275;48.914;12.566;2022-09-13T17:03:42;18.90;99.90
37410;DHT22;23275;48.914;12.566;2022-09-13T17:06:09;18.90;99.90
37410;DHT22;23275;48.914;12.566;2022-09-13T17:08:36;18.90;99.90
37410;DHT22;23275;48.914;12.566;2022-09-13T17:11:05;18.90;99.90
37410;DHT22;23275;48.914;12.566;2022-09-13T17:13:31;18.80;99.90
37410;DHT22;23275;48.914;12.566;2022-09-13T17:15:57;18.80;99.90
37410;DHT22;23275;48.914;12.566;2022-09-13T17:18:22;18.70;99.90
37410;DHT22;23275;48.914;12.566;2022-09-13T17:20:48;18.70;99.90
37410;DHT22;23275;48.914;12.566;2022-09-13T17:23:14;18.70;99.90
37410;DHT22;23275;48.914;12.566;2022-09-13T17:25:41;18.60;99.90
37410;DHT22;23275;48.914;12.566;2022-09-13T17:28:10;18.70;99.90
37410;DHT22;23275;48.914;12.566;2022-09-13T17:30:35;18.60;99.90
37410;DHT22;23275;48.914;12.566;2022-09-13T17:33:01;18.50;99.90
37410;DHT22;23275;48.914;12.566;2022-09-13T17:35:28;18.50;99.90
37410;DHT22;23275;48.914;12.566;2022-09-13T17:37:54;18.50;99.90
37410;DHT22;23275;48.914;12.566;2022-09-13T17:40:19;18.50;99.90
37410;DHT22;23275;48.914;12.566;2022-09-13T17:42:45;18.50;99.90
37410;DHT22;23275;48.914;12.566;2022-09-13T17:45:12;18.40;99.90
37410;DHT22;23275;48.914;12.566;2022-09-13T17:47:37;18.40;99.90
37410;DHT22;23275;48.914;12.566;2022-09-13T17:50:03;18.40;99.90
37410;DHT22;23275;48.914;12.566;2022-09-13T17:52:29;18.40;99.90
37410;DHT22;23275;48.914;12.566;2022-09-13T17:54:54;18.40;99.90
37410;DHT22;23275;48.914;12.566;2022-09-13T17:57:19;18.30;99.90
37410;DHT22;23275;48.914;12.566;2022-09-13T17:59:46;18.40;99.90
37410;DHT22;23275;48.914;12.566;2022-09-13T18:02:11;18.30;99.90
37410;DHT22;23275;48.914;12.566;2022-09-13T18:04:37;18.30;99.90
37410;DHT22;23275;48.914;12.566;2022-09-13T18:07:03;18.30;99.90
37410;DHT22;23275;48.914;12.566;2022-09-13T18:09:28;18.30;99.90
37410;DHT22;23275;48.914;12.566;2022-09-13T18:11:53;18.30;99.90
37410;DHT22;23275;48.914;12.566;2022-09-13T18:14:19;18.20;99.90
37410;DHT22;23275;48.914;12.566;2022-09-13T18:16:45;18.20;99.90
37410;DHT22;23275;48.914;12.566;2022-09-13T18:19:11;18.20;99.90
37410;DHT22;23275;48.914;12.566;2022-09-13T18:21:36;18.20;99.90
37410;DHT22;23275;48.914;12.566;2022-09-13T18:24:02;18.10;99.90
37410;DHT22;23275;48.914;12.566;2022-09-13T18:26:29;18.10;99.90
37410;DHT22;23275;48.914;12.566;2022-09-13T18:28:57;18.00;99.90
37410;DHT22;23275;48.914;12.566;2022-09-13T18:31:26;18.00;99.90
37410;DHT22;23275;48.914;12.566;2022-09-13T18:33:55;18.00;99.90
37410;DHT22;23275;48.914;12.566;2022-09-13T18:36:21;18.00;99.90
37410;DHT22;23275;48.914;12.566;2022-09-13T18:38:47;18.00;99.90